This is the latest recevied weather packets stored in our database for station/object KG4ZVW. If no packets are shown the sender has not sent any weather packets the latest 1 day(s).
| Time | Temp. | Humidity | Pressure | Rain* | Wind** | Luminosity | Snow |
|---|---|---|---|---|---|---|---|
| 1778009304 | 28.33° C | 54% | 1015.3 hPa | 0 mm | 2.24 m/s, 34° | 803 W/m² | - |
| 1778009020 | 28.33° C | 50% | 1015.4 hPa | 0 mm | 3.58 m/s, 78° | 817 W/m² | - |
| 1778008713 | 28.33° C | 51% | 1015.4 hPa | 0 mm | 4.47 m/s, 118° | 835 W/m² | - |
| 1778008410 | 28.33° C | 52% | 1015.4 hPa | 0 mm | 2.24 m/s, 39° | 833 W/m² | - |
| 1778008104 | 27.78° C | 50% | 1015.5 hPa | 0 mm | 3.58 m/s, 61° | 846 W/m² | - |
| 1778007819 | 27.78° C | 51% | 1015.5 hPa | 0 mm | 1.34 m/s, 66° | 847 W/m² | - |
| 1778007514 | 27.78° C | 54% | 1015.5 hPa | 0 mm | 2.24 m/s, 68° | 854 W/m² | - |
| 1778007209 | 27.78° C | 52% | 1015.6 hPa | 0 mm | 3.58 m/s, 72° | 870 W/m² | - |
| 1778006905 | 27.78° C | 56% | 1015.6 hPa | 0 mm | 3.13 m/s, 61° | 881 W/m² | - |
| 1778006621 | 27.78° C | 53% | 1015.6 hPa | 0 mm | 2.24 m/s, 98° | 905 W/m² | - |
| 1778006315 | 28.33° C | 56% | 1016 hPa | 0 mm | 3.13 m/s, 116° | 904 W/m² | - |
| 1778006011 | 28.33° C | 57% | 1016 hPa | 0 mm | 2.68 m/s, 37° | 916 W/m² | - |
| 1778005705 | 28.33° C | 56% | 1016 hPa | 0 mm | 1.34 m/s, 60° | 911 W/m² | - |
| 1778005419 | 27.78° C | 55% | 1016 hPa | 0 mm | 4.02 m/s, 97° | 900 W/m² | - |
| 1778005114 | 27.78° C | 56% | 1016 hPa | 0 mm | 2.24 m/s, 81° | 946 W/m² | - |
| 1778004809 | 27.78° C | 55% | 1016 hPa | 0 mm | 3.13 m/s, 144° | 935 W/m² | - |
| 1778004503 | 27.78° C | 53% | 1016 hPa | 0 mm | 3.58 m/s, 140° | 939 W/m² | - |
| 1778004219 | 27.78° C | 55% | 1016 hPa | 0 mm | 2.24 m/s, 84° | 930 W/m² | - |
| 1778003913 | 27.78° C | 55% | 1016 hPa | 0 mm | 3.13 m/s, 67° | 919 W/m² | - |
| 1778003608 | 27.78° C | 53% | 1016.1 hPa | 0 mm | 3.58 m/s, 60° | 953 W/m² | - |
| 1778003303 | 27.78° C | 55% | 1016.1 hPa | 0 mm | 2.68 m/s, 46° | 218 W/m² | - |
| 1778003020 | 27.78° C | 59% | 1016.1 hPa | 0 mm | 1.79 m/s, 84° | 909 W/m² | - |
| 1778002712 | 27.78° C | 53% | 1016.1 hPa | 0 mm | 4.02 m/s, 95° | 976 W/m² | - |
| 1778002410 | 27.78° C | 54% | 1016.1 hPa | 0 mm | 2.24 m/s, 77° | 1005 W/m² | - |
| 1778002105 | 27.78° C | 55% | 1016.1 hPa | 0 mm | 1.34 m/s, 41° | 334 W/m² | - |
* Rain latest hour (hover to see other rain measurements)
** Current wind speed in m/s (hover to see current wind gust speed)